SKUI/UIB METAR and TAF weather

Enter ICAO airport designator
Station Type Date Time Source
SKUI METAR 2019/02/21 00:00 UTC NOAA

SKUI 210000Z VRB02KT 9999 FEW017TCU SCT200 27/25 A2976 RMK TCU/S/W


Station Type Date Time Source
SKUI Decoded METAR 2019/02/21 00:00 UTC NOAA

Quibdo / El Carano, Colombia (SKUI) 05-43N 076-37W
Feb 20, 2019 - 07:00 PM EST / 2019.02.21 0000 UTC
Wind: Variable at 2 MPH (2 KT):0
Visibility: greater than 7 mile(s):0
Sky conditions: partly cloudy
Weather: Towering cumulus clouds observed
Temperature: 80 F (27 C)
Dew Point: 77 F (25 C)
Relative Humidity: 88%
Pressure (altimeter): 29.76 in. Hg (1007 hPa)
ob: SKUI 210000Z VRB02KT 9999 FEW017TCU SCT200 27/25 A2976 RMK TCU/S/W
cycle: 0

Station Type Date Time Source
SKUI TAF UTC NOAA

Error!


Example: see airport list